sensor_id;sensor_type;location;lat;lon;timestamp;pressure;altitude;pressure_sealevel;temperature;humidity
84049;BME280;74136;51.684;7.862;2023-12-20T00:00:01;100721.22;;;6.15;90.89
84049;BME280;74136;51.684;7.862;2023-12-20T00:02:27;100729.81;;;6.12;91.02
84049;BME280;74136;51.684;7.862;2023-12-20T00:04:52;100726.66;;;6.08;90.82
84049;BME280;74136;51.684;7.862;2023-12-20T00:07:18;100719.09;;;6.04;90.96
84049;BME280;74136;51.684;7.862;2023-12-20T00:09:43;100725.78;;;6.01;90.91
84049;BME280;74136;51.684;7.862;2023-12-20T00:12:09;100716.94;;;5.99;90.90
84049;BME280;74136;51.684;7.862;2023-12-20T00:14:36;100711.69;;;5.98;91.23
84049;BME280;74136;51.684;7.862;2023-12-20T00:17:01;100723.66;;;5.97;91.07
84049;BME280;74136;51.684;7.862;2023-12-20T00:19:26;100713.56;;;5.97;91.06
84049;BME280;74136;51.684;7.862;2023-12-20T00:21:51;100702.66;;;5.97;91.16
84049;BME280;74136;51.684;7.862;2023-12-20T00:24:21;100713.16;;;5.94;91.23
84049;BME280;74136;51.684;7.862;2023-12-20T00:26:46;100728.50;;;5.95;91.47
84049;BME280;74136;51.684;7.862;2023-12-20T00:29:12;100715.81;;;5.87;91.45
84049;BME280;74136;51.684;7.862;2023-12-20T00:31:37;100730.78;;;5.91;91.34
84049;BME280;74136;51.684;7.862;2023-12-20T00:34:03;100721.94;;;5.89;91.33
84049;BME280;74136;51.684;7.862;2023-12-20T00:36:28;100729.09;;;5.90;91.26
84049;BME280;74136;51.684;7.862;2023-12-20T00:38:53;100736.25;;;5.91;91.21
84049;BME280;74136;51.684;7.862;2023-12-20T00:41:19;100734.09;;;5.86;91.29
84049;BME280;74136;51.684;7.862;2023-12-20T00:43:44;100741.66;;;5.84;91.10
84049;BME280;74136;51.684;7.862;2023-12-20T00:46:10;100738.69;;;5.79;91.26
84049;BME280;74136;51.684;7.862;2023-12-20T00:48:35;100735.94;;;5.73;91.39
84049;BME280;74136;51.684;7.862;2023-12-20T00:51:02;100739.69;;;5.72;91.79
84049;BME280;74136;51.684;7.862;2023-12-20T00:53:28;100737.81;;;5.72;91.29
84049;BME280;74136;51.684;7.862;2023-12-20T00:55:54;100738.66;;;5.73;91.06
84049;BME280;74136;51.684;7.862;2023-12-20T00:58:19;100741.13;;;5.68;91.29
84049;BME280;74136;51.684;7.862;2023-12-20T01:00:44;100738.78;;;5.65;91.53
84049;BME280;74136;51.684;7.862;2023-12-20T01:03:10;100738.75;;;5.58;90.94
84049;BME280;74136;51.684;7.862;2023-12-20T01:05:35;100747.81;;;5.59;90.95
84049;BME280;74136;51.684;7.862;2023-12-20T01:08:01;100754.94;;;5.60;91.22
84049;BME280;74136;51.684;7.862;2023-12-20T01:10:28;100750.53;;;5.59;91.00
84049;BME280;74136;51.684;7.862;2023-12-20T01:12:54;100753.25;;;5.59;91.37
84049;BME280;74136;51.684;7.862;2023-12-20T01:15:21;100762.50;;;5.58;91.34
84049;BME280;74136;51.684;7.862;2023-12-20T01:17:48;100763.53;;;5.57;90.93
84049;BME280;74136;51.684;7.862;2023-12-20T01:20:14;100765.59;;;5.55;91.15
84049;BME280;74136;51.684;7.862;2023-12-20T01:22:42;100752.03;;;5.61;90.85
84049;BME280;74136;51.684;7.862;2023-12-20T01:25:08;100753.91;;;5.61;90.95
84049;BME280;74136;51.684;7.862;2023-12-20T01:27:33;100760.22;;;5.61;90.63
84049;BME280;74136;51.684;7.862;2023-12-20T01:29:59;100761.28;;;5.67;90.49
84049;BME280;74136;51.684;7.862;2023-12-20T01:32:24;100761.47;;;5.65;90.41
84049;BME280;74136;51.684;7.862;2023-12-20T01:34:49;100768.41;;;5.61;90.41
84049;BME280;74136;51.684;7.862;2023-12-20T01:37:16;100765.59;;;5.55;89.19
84049;BME280;74136;51.684;7.862;2023-12-20T01:39:41;100771.50;;;5.52;88.93
84049;BME280;74136;51.684;7.862;2023-12-20T01:42:06;100771.63;;;5.43;88.51
84049;BME280;74136;51.684;7.862;2023-12-20T01:44:32;100782.50;;;5.37;88.63
84049;BME280;74136;51.684;7.862;2023-12-20T01:46:57;100785.38;;;5.29;88.76
84049;BME280;74136;51.684;7.862;2023-12-20T01:49:22;100770.59;;;5.17;88.38
84049;BME280;74136;51.684;7.862;2023-12-20T01:51:49;100780.84;;;5.15;89.01
84049;BME280;74136;51.684;7.862;2023-12-20T01:54:15;100786.69;;;5.11;88.83
84049;BME280;74136;51.684;7.862;2023-12-20T01:56:42;100780.56;;;5.09;88.61
84049;BME280;74136;51.684;7.862;2023-12-20T01:59:08;100771.13;;;5.05;89.33
84049;BME280;74136;51.684;7.862;2023-12-20T02:01:34;100783.72;;;5.06;88.91
84049;BME280;74136;51.684;7.862;2023-12-20T02:04:01;100768.59;;;5.04;88.68
84049;BME280;74136;51.684;7.862;2023-12-20T02:06:29;100784.47;;;5.00;88.42
84049;BME280;74136;51.684;7.862;2023-12-20T02:08:57;100779.41;;;4.97;89.05
84049;BME280;74136;51.684;7.862;2023-12-20T02:11:23;100777.53;;;4.98;88.72
84049;BME280;74136;51.684;7.862;2023-12-20T02:13:50;100778.47;;;5.05;87.83
84049;BME280;74136;51.684;7.862;2023-12-20T02:16:15;100778.25;;;5.06;87.62
84049;BME280;74136;51.684;7.862;2023-12-20T02:18:42;100764.81;;;5.05;88.04
84049;BME280;74136;51.684;7.862;2023-12-20T02:21:09;100768.78;;;5.02;88.09
84049;BME280;74136;51.684;7.862;2023-12-20T02:23:36;100769.34;;;4.98;87.64
84049;BME280;74136;51.684;7.862;2023-12-20T02:26:03;100759.06;;;4.93;88.04
84049;BME280;74136;51.684;7.862;2023-12-20T02:28:29;100764.88;;;4.90;88.12
84049;BME280;74136;51.684;7.862;2023-12-20T02:30:55;100766.75;;;4.90;88.07
84049;BME280;74136;51.684;7.862;2023-12-20T02:33:20;100758.19;;;4.93;88.54
84049;BME280;74136;51.684;7.862;2023-12-20T02:35:45;100756.78;;;4.97;88.23
84049;BME280;74136;51.684;7.862;2023-12-20T02:38:11;100770.00;;;5.00;88.15
84049;BME280;74136;51.684;7.862;2023-12-20T02:40:36;100762.28;;;5.03;88.00
84049;BME280;74136;51.684;7.862;2023-12-20T02:43:01;100772.16;;;5.04;88.33
84049;BME280;74136;51.684;7.862;2023-12-20T02:45:27;100761.81;;;5.00;88.17
84049;BME280;74136;51.684;7.862;2023-12-20T02:47:52;100774.03;;;5.04;87.88
84049;BME280;74136;51.684;7.862;2023-12-20T02:50:18;100755.78;;;5.04;87.89
84049;BME280;74136;51.684;7.862;2023-12-20T02:52:47;100759.16;;;5.06;88.42
84049;BME280;74136;51.684;7.862;2023-12-20T02:55:12;100762.75;;;5.07;88.71
84049;BME280;74136;51.684;7.862;2023-12-20T02:57:38;100755.41;;;5.07;88.31
84049;BME280;74136;51.684;7.862;2023-12-20T03:00:10;100748.69;;;5.10;88.49
84049;BME280;74136;51.684;7.862;2023-12-20T03:02:39;100761.28;;;5.11;88.25
84049;BME280;74136;51.684;7.862;2023-12-20T03:05:05;100754.78;;;5.12;88.68
84049;BME280;74136;51.684;7.862;2023-12-20T03:07:31;100755.84;;;5.11;88.16
84049;BME280;74136;51.684;7.862;2023-12-20T03:09:57;100767.22;;;5.15;88.47
84049;BME280;74136;51.684;7.862;2023-12-20T03:12:23;100758.19;;;5.14;88.20
84049;BME280;74136;51.684;7.862;2023-12-20T03:14:49;100763.81;;;5.12;88.01
84049;BME280;74136;51.684;7.862;2023-12-20T03:17:14;100753.53;;;5.08;88.04
84049;BME280;74136;51.684;7.862;2023-12-20T03:19:40;100754.56;;;5.07;88.03
84049;BME280;74136;51.684;7.862;2023-12-20T03:22:06;100749.09;;;5.07;87.44
84049;BME280;74136;51.684;7.862;2023-12-20T03:24:31;100755.00;;;5.10;86.99
84049;BME280;74136;51.684;7.862;2023-12-20T03:26:56;100756.53;;;5.20;86.19
84049;BME280;74136;51.684;7.862;2023-12-20T03:29:23;100741.00;;;5.20;85.94
84049;BME280;74136;51.684;7.862;2023-12-20T03:31:51;100759.47;;;5.18;86.28
84049;BME280;74136;51.684;7.862;2023-12-20T03:34:17;100766.00;;;5.24;86.48
84049;BME280;74136;51.684;7.862;2023-12-20T03:36:42;100755.09;;;5.24;85.77
84049;BME280;74136;51.684;7.862;2023-12-20T03:39:08;100748.41;;;5.26;86.24
84049;BME280;74136;51.684;7.862;2023-12-20T03:41:35;100741.00;;;5.20;85.58
84049;BME280;74136;51.684;7.862;2023-12-20T03:44:00;100754.59;;;5.13;85.91
84049;BME280;74136;51.684;7.862;2023-12-20T03:46:26;100753.31;;;5.09;85.83
84049;BME280;74136;51.684;7.862;2023-12-20T03:48:51;100748.25;;;5.06;86.20
84049;BME280;74136;51.684;7.862;2023-12-20T03:51:16;100761.72;;;5.08;85.95
84049;BME280;74136;51.684;7.862;2023-12-20T03:53:42;100748.06;;;5.08;86.05
84049;BME280;74136;51.684;7.862;2023-12-20T03:56:07;100752.91;;;5.12;86.44
84049;BME280;74136;51.684;7.862;2023-12-20T03:58:33;100751.41;;;5.10;85.50
84049;BME280;74136;51.684;7.862;2023-12-20T04:00:58;100743.88;;;5.12;85.81
84049;BME280;74136;51.684;7.862;2023-12-20T04:03:24;100737.00;;;5.16;85.52
84049;BME280;74136;51.684;7.862;2023-12-20T04:05:49;100754.66;;;5.20;84.72
84049;BME280;74136;51.684;7.862;2023-12-20T04:08:14;100755.91;;;5.18;84.30
84049;BME280;74136;51.684;7.862;2023-12-20T04:10:41;100742.66;;;5.15;84.88
84049;BME280;74136;51.684;7.862;2023-12-20T04:13:08;100739.22;;;5.06;84.96
84049;BME280;74136;51.684;7.862;2023-12-20T04:15:33;100730.97;;;4.99;85.27
84049;BME280;74136;51.684;7.862;2023-12-20T04:17:59;100729.91;;;4.94;85.15
84049;BME280;74136;51.684;7.862;2023-12-20T04:20:24;100723.78;;;4.92;85.49
84049;BME280;74136;51.684;7.862;2023-12-20T04:22:50;100731.69;;;4.87;85.79
84049;BME280;74136;51.684;7.862;2023-12-20T04:25:15;100739.31;;;4.91;85.78
84049;BME280;74136;51.684;7.862;2023-12-20T04:27:41;100730.84;;;4.86;85.73
84049;BME280;74136;51.684;7.862;2023-12-20T04:30:09;100735.03;;;4.82;85.45
84049;BME280;74136;51.684;7.862;2023-12-20T04:32:34;100737.09;;;4.80;85.95
84049;BME280;74136;51.684;7.862;2023-12-20T04:35:00;100732.31;;;4.82;86.10
84049;BME280;74136;51.684;7.862;2023-12-20T04:37:25;100739.84;;;4.80;86.54
84049;BME280;74136;51.684;7.862;2023-12-20T04:39:50;100732.50;;;4.81;86.41
84049;BME280;74136;51.684;7.862;2023-12-20T04:42:16;100733.59;;;4.86;85.82
84049;BME280;74136;51.684;7.862;2023-12-20T04:44:41;100737.44;;;4.92;85.41
84049;BME280;74136;51.684;7.862;2023-12-20T04:47:06;100730.28;;;4.91;85.47
84049;BME280;74136;51.684;7.862;2023-12-20T04:49:32;100716.91;;;4.96;84.53
84049;BME280;74136;51.684;7.862;2023-12-20T04:51:58;100730.75;;;4.94;85.70
84049;BME280;74136;51.684;7.862;2023-12-20T04:54:23;100739.13;;;4.93;85.39
84049;BME280;74136;51.684;7.862;2023-12-20T04:56:49;100738.47;;;4.91;85.91
84049;BME280;74136;51.684;7.862;2023-12-20T04:59:15;100738.94;;;4.94;85.89
84049;BME280;74136;51.684;7.862;2023-12-20T05:01:41;100742.50;;;4.95;85.67
84049;BME280;74136;51.684;7.862;2023-12-20T05:04:06;100743.56;;;5.00;85.43
84049;BME280;74136;51.684;7.862;2023-12-20T05:06:32;100748.66;;;5.03;84.74
84049;BME280;74136;51.684;7.862;2023-12-20T05:08:57;100752.34;;;5.17;84.22
84049;BME280;74136;51.684;7.862;2023-12-20T05:11:22;100744.81;;;5.19;83.90
84049;BME280;74136;51.684;7.862;2023-12-20T05:13:48;100733.03;;;5.19;84.14
84049;BME280;74136;51.684;7.862;2023-12-20T05:16:13;100728.63;;;5.18;84.79
84049;BME280;74136;51.684;7.862;2023-12-20T05:18:39;100744.53;;;5.14;85.18
84049;BME280;74136;51.684;7.862;2023-12-20T05:21:05;100740.50;;;5.10;85.23
84049;BME280;74136;51.684;7.862;2023-12-20T05:23:30;100737.16;;;5.08;84.87
84049;BME280;74136;51.684;7.862;2023-12-20T05:25:56;100752.25;;;5.10;85.16
84049;BME280;74136;51.684;7.862;2023-12-20T05:28:21;100747.41;;;5.06;84.35
84049;BME280;74136;51.684;7.862;2023-12-20T05:30:46;100735.41;;;5.00;84.10
84049;BME280;74136;51.684;7.862;2023-12-20T05:33:12;100737.88;;;4.95;85.36
84049;BME280;74136;51.684;7.862;2023-12-20T05:35:38;100727.38;;;4.92;84.94
84049;BME280;74136;51.684;7.862;2023-12-20T05:38:03;100720.25;;;4.98;84.45
84049;BME280;74136;51.684;7.862;2023-12-20T05:40:29;100720.72;;;5.01;84.86
84049;BME280;74136;51.684;7.862;2023-12-20T05:42:54;100712.72;;;5.00;85.27
84049;BME280;74136;51.684;7.862;2023-12-20T05:45:19;100711.22;;;4.97;84.72
84049;BME280;74136;51.684;7.862;2023-12-20T05:47:45;100719.41;;;4.97;84.52
84049;BME280;74136;51.684;7.862;2023-12-20T05:50:10;100728.22;;;4.93;84.81
84049;BME280;74136;51.684;7.862;2023-12-20T05:52:36;100725.47;;;4.93;84.60
84049;BME280;74136;51.684;7.862;2023-12-20T05:55:01;100729.06;;;4.93;85.48
84049;BME280;74136;51.684;7.862;2023-12-20T05:57:27;100735.16;;;4.95;84.85
84049;BME280;74136;51.684;7.862;2023-12-20T05:59:52;100732.84;;;4.99;84.70
84049;BME280;74136;51.684;7.862;2023-12-20T06:02:18;100744.22;;;5.02;84.33
84049;BME280;74136;51.684;7.862;2023-12-20T06:04:43;100738.38;;;5.05;85.32
84049;BME280;74136;51.684;7.862;2023-12-20T06:07:13;100744.50;;;5.07;84.96
84049;BME280;74136;51.684;7.862;2023-12-20T06:09:39;100737.53;;;5.05;84.56
84049;BME280;74136;51.684;7.862;2023-12-20T06:12:04;100741.13;;;5.05;84.98
84049;BME280;74136;51.684;7.862;2023-12-20T06:14:31;100724.50;;;5.00;85.31
84049;BME280;74136;51.684;7.862;2023-12-20T06:16:57;100737.34;;;5.06;84.74
84049;BME280;74136;51.684;7.862;2023-12-20T06:19:23;100741.97;;;5.06;84.46
84049;BME280;74136;51.684;7.862;2023-12-20T06:21:48;100736.09;;;5.09;84.91
84049;BME280;74136;51.684;7.862;2023-12-20T06:24:14;100734.22;;;5.09;84.44
84049;BME280;74136;51.684;7.862;2023-12-20T06:26:39;100737.78;;;5.10;84.57
84049;BME280;74136;51.684;7.862;2023-12-20T06:29:04;100740.97;;;5.13;84.48
84049;BME280;74136;51.684;7.862;2023-12-20T06:31:30;100742.66;;;5.15;84.88
84049;BME280;74136;51.684;7.862;2023-12-20T06:33:55;100724.78;;;5.12;84.09
84049;BME280;74136;51.684;7.862;2023-12-20T06:36:23;100738.69;;;5.17;84.58
84049;BME280;74136;51.684;7.862;2023-12-20T06:38:49;100742.88;;;5.20;83.69
84049;BME280;74136;51.684;7.862;2023-12-20T06:41:15;100734.69;;;5.20;84.25
84049;BME280;74136;51.684;7.862;2023-12-20T06:43:41;100731.56;;;5.16;84.35
84049;BME280;74136;51.684;7.862;2023-12-20T06:46:06;100737.03;;;5.23;83.82
84049;BME280;74136;51.684;7.862;2023-12-20T06:48:32;100744.38;;;5.22;84.15
84049;BME280;74136;51.684;7.862;2023-12-20T06:50:59;100736.19;;;5.22;84.20
84049;BME280;74136;51.684;7.862;2023-12-20T06:53:24;100733.66;;;5.21;84.56
84049;BME280;74136;51.684;7.862;2023-12-20T06:55:50;100734.09;;;5.18;84.66
84049;BME280;74136;51.684;7.862;2023-12-20T06:58:15;100740.16;;;5.20;84.69
84049;BME280;74136;51.684;7.862;2023-12-20T07:00:41;100737.03;;;5.23;84.08
84049;BME280;74136;51.684;7.862;2023-12-20T07:03:07;100741.00;;;5.20;84.24
84049;BME280;74136;51.684;7.862;2023-12-20T07:05:32;100735.34;;;5.22;84.03
84049;BME280;74136;51.684;7.862;2023-12-20T07:07:58;100734.69;;;5.20;84.60
84049;BME280;74136;51.684;7.862;2023-12-20T07:10:24;100742.88;;;5.20;84.52
84049;BME280;74136;51.684;7.862;2023-12-20T07:12:49;100733.81;;;5.12;84.76
84049;BME280;74136;51.684;7.862;2023-12-20T07:15:16;100740.16;;;5.20;83.94
84049;BME280;74136;51.684;7.862;2023-12-20T07:17:41;100736.63;;;5.19;83.99
84049;BME280;74136;51.684;7.862;2023-12-20T07:20:07;100734.94;;;5.18;84.53
84049;BME280;74136;51.684;7.862;2023-12-20T07:22:36;100736.63;;;5.19;84.67
84049;BME280;74136;51.684;7.862;2023-12-20T07:25:01;100738.88;;;5.16;83.76
84049;BME280;74136;51.684;7.862;2023-12-20T07:27:27;100748.56;;;5.18;83.91
84049;BME280;74136;51.684;7.862;2023-12-20T07:29:52;100748.81;;;5.23;83.56
84049;BME280;74136;51.684;7.862;2023-12-20T07:32:18;100744.38;;;5.22;83.45
84049;BME280;74136;51.684;7.862;2023-12-20T07:34:43;100736.00;;;5.24;83.72
84049;BME280;74136;51.684;7.862;2023-12-20T07:37:09;100748.16;;;5.21;83.21
84049;BME280;74136;51.684;7.862;2023-12-20T07:39:43;100741.84;;;5.21;83.49
84049;BME280;74136;51.684;7.862;2023-12-20T07:42:08;100736.84;;;5.24;83.83
84049;BME280;74136;51.684;7.862;2023-12-20T07:44:34;100740.44;;;5.25;82.99
84049;BME280;74136;51.684;7.862;2023-12-20T07:47:01;100737.97;;;5.30;82.23
84049;BME280;74136;51.684;7.862;2023-12-20T07:49:28;100735.00;;;5.31;82.62
84049;BME280;74136;51.684;7.862;2023-12-20T07:51:56;100757.88;;;5.30;82.66
84049;BME280;74136;51.684;7.862;2023-12-20T07:54:22;100746.16;;;5.30;82.68
84049;BME280;74136;51.684;7.862;2023-12-20T07:56:48;100738.78;;;5.30;82.75
84049;BME280;74136;51.684;7.862;2023-12-20T07:59:14;100746.38;;;5.35;82.60
84049;BME280;74136;51.684;7.862;2023-12-20T08:01:39;100746.56;;;5.33;82.50
84049;BME280;74136;51.684;7.862;2023-12-20T08:04:05;100738.84;;;5.37;82.31
84049;BME280;74136;51.684;7.862;2023-12-20T08:06:30;100736.50;;;5.34;82.83
84049;BME280;74136;51.684;7.862;2023-12-20T08:08:58;100752.03;;;5.33;82.68
84049;BME280;74136;51.684;7.862;2023-12-20T08:11:23;100738.19;;;5.35;82.13
84049;BME280;74136;51.684;7.862;2023-12-20T08:13:49;100741.56;;;5.37;82.32
84049;BME280;74136;51.684;7.862;2023-12-20T08:16:15;100745.13;;;5.37;82.92
84049;BME280;74136;51.684;7.862;2023-12-20T08:18:42;100726.22;;;5.36;81.96
84049;BME280;74136;51.684;7.862;2023-12-20T08:21:08;100742.59;;;5.36;82.23
84049;BME280;74136;51.684;7.862;2023-12-20T08:23:33;100734.88;;;5.39;82.09
84049;BME280;74136;51.684;7.862;2023-12-20T08:26:06;100735.72;;;5.40;82.40
84049;BME280;74136;51.684;7.862;2023-12-20T08:28:32;100719.97;;;5.42;82.11
84049;BME280;74136;51.684;7.862;2023-12-20T08:30:57;100733.22;;;5.45;81.79
84049;BME280;74136;51.684;7.862;2023-12-20T08:33:23;100723.75;;;5.41;81.82
84049;BME280;74136;51.684;7.862;2023-12-20T08:35:48;100732.56;;;5.43;82.37
84049;BME280;74136;51.684;7.862;2023-12-20T08:38:13;100729.25;;;5.47;82.17
84049;BME280;74136;51.684;7.862;2023-12-20T08:40:39;100739.31;;;5.47;82.06
84049;BME280;74136;51.684;7.862;2023-12-20T08:43:05;100731.34;;;5.45;82.23
84049;BME280;74136;51.684;7.862;2023-12-20T08:45:30;100732.81;;;5.48;81.59
84049;BME280;74136;51.684;7.862;2023-12-20T08:47:55;100733.47;;;5.50;81.93
84049;BME280;74136;51.684;7.862;2023-12-20T08:50:22;100718.78;;;5.51;81.90
84049;BME280;74136;51.684;7.862;2023-12-20T08:52:47;100722.56;;;5.50;81.88
84049;BME280;74136;51.684;7.862;2023-12-20T08:55:12;100732.00;;;5.54;82.72
84049;BME280;74136;51.684;7.862;2023-12-20T08:57:40;100716.69;;;5.53;82.17
84049;BME280;74136;51.684;7.862;2023-12-20T09:00:06;100717.31;;;5.55;82.02
84049;BME280;74136;51.684;7.862;2023-12-20T09:02:32;100711.84;;;5.55;82.27
84049;BME280;74136;51.684;7.862;2023-12-20T09:05:01;100706.59;;;5.54;82.16
84049;BME280;74136;51.684;7.862;2023-12-20T09:07:27;100714.41;;;5.57;82.11
84049;BME280;74136;51.684;7.862;2023-12-20T09:09:54;100717.97;;;5.57;81.92
84049;BME280;74136;51.684;7.862;2023-12-20T09:12:20;100710.63;;;5.58;81.97
84049;BME280;74136;51.684;7.862;2023-12-20T09:14:47;100704.31;;;5.57;82.32
84049;BME280;74136;51.684;7.862;2023-12-20T09:17:13;100706.84;;;5.59;81.84
84049;BME280;74136;51.684;7.862;2023-12-20T09:19:38;100703.47;;;5.57;82.23
84049;BME280;74136;51.684;7.862;2023-12-20T09:22:05;100693.66;;;5.62;82.27
84049;BME280;74136;51.684;7.862;2023-12-20T09:24:30;100700.56;;;5.65;81.80
84049;BME280;74136;51.684;7.862;2023-12-20T09:26:56;100691.97;;;5.61;81.71
84049;BME280;74136;51.684;7.862;2023-12-20T09:29:21;100681.69;;;5.63;82.13
84049;BME280;74136;51.684;7.862;2023-12-20T09:31:46;100699.34;;;5.67;81.66
84049;BME280;74136;51.684;7.862;2023-12-20T09:34:14;100686.06;;;5.64;81.49
84049;BME280;74136;51.684;7.862;2023-12-20T09:36:39;100681.91;;;5.68;82.07
84049;BME280;74136;51.684;7.862;2023-12-20T09:39:11;100678.13;;;5.69;81.56
84049;BME280;74136;51.684;7.862;2023-12-20T09:41:40;100657.13;;;5.70;81.86
84049;BME280;74136;51.684;7.862;2023-12-20T09:44:08;100657.81;;;5.78;81.35
84049;BME280;74136;51.684;7.862;2023-12-20T09:46:38;100667.28;;;5.82;81.48
84049;BME280;74136;51.684;7.862;2023-12-20T09:49:06;100669.81;;;5.84;81.90
84049;BME280;74136;51.684;7.862;2023-12-20T09:51:32;100679.47;;;5.86;81.43
84049;BME280;74136;51.684;7.862;2023-12-20T09:53:58;100676.56;;;5.88;82.02
84049;BME280;74136;51.684;7.862;2023-12-20T09:56:26;100679.28;;;5.88;81.93
84049;BME280;74136;51.684;7.862;2023-12-20T09:58:51;100669.84;;;5.91;82.26
84049;BME280;74136;51.684;7.862;2023-12-20T10:01:17;100679.09;;;5.90;81.58
84049;BME280;74136;51.684;7.862;2023-12-20T10:03:44;100689.81;;;5.91;82.77
84049;BME280;74136;51.684;7.862;2023-12-20T10:06:10;100680.38;;;5.94;82.54
84049;BME280;74136;51.684;7.862;2023-12-20T10:08:36;100684.81;;;5.95;82.15
84049;BME280;74136;51.684;7.862;2023-12-20T10:11:02;100680.38;;;5.94;81.99
84049;BME280;74136;51.684;7.862;2023-12-20T10:13:30;100665.63;;;5.88;82.28
84049;BME280;74136;51.684;7.862;2023-12-20T10:15:55;100668.81;;;5.92;82.56
84049;BME280;74136;51.684;7.862;2023-12-20T10:18:21;100675.69;;;5.88;82.51
84049;BME280;74136;51.684;7.862;2023-12-20T10:20:48;100667.50;;;5.88;82.49
84049;BME280;74136;51.684;7.862;2023-12-20T10:23:15;100671.94;;;5.89;82.00
84049;BME280;74136;51.684;7.862;2023-12-20T10:25:40;100659.72;;;5.84;82.75
84049;BME280;74136;51.684;7.862;2023-12-20T10:30:36;100663.31;;;5.85;82.83
84049;BME280;74136;51.684;7.862;2023-12-20T10:33:01;100655.72;;;5.87;82.47
84049;BME280;74136;51.684;7.862;2023-12-20T10:35:27;100651.97;;;5.88;81.86
84049;BME280;74136;51.684;7.862;2023-12-20T10:37:55;100643.78;;;5.88;81.63
84049;BME280;74136;51.684;7.862;2023-12-20T10:40:22;100651.78;;;5.90;82.45
84049;BME280;74136;51.684;7.862;2023-12-20T10:42:48;100643.34;;;5.84;82.30
84049;BME280;74136;51.684;7.862;2023-12-20T10:45:15;100649.06;;;5.90;82.29
84049;BME280;74136;51.684;7.862;2023-12-20T10:47:44;100654.13;;;5.93;81.88
84049;BME280;74136;51.684;7.862;2023-12-20T10:50:11;100651.81;;;5.96;81.87
84049;BME280;74136;51.684;7.862;2023-12-20T10:52:37;100657.91;;;5.98;82.13
84049;BME280;74136;51.684;7.862;2023-12-20T10:55:03;100657.91;;;5.98;81.82
84049;BME280;74136;51.684;7.862;2023-12-20T10:57:29;100636.03;;;5.98;81.48
84049;BME280;74136;51.684;7.862;2023-12-20T10:59:56;100648.47;;;6.01;81.31
84049;BME280;74136;51.684;7.862;2023-12-20T11:02:26;100636.88;;;5.99;81.53
84049;BME280;74136;51.684;7.862;2023-12-20T11:05:09;100641.94;;;6.02;81.22
84049;BME280;74136;51.684;7.862;2023-12-20T11:07:39;100629.53;;;5.99;81.38
84049;BME280;74136;51.684;7.862;2023-12-20T11:10:24;100639.47;;;6.07;81.58
84049;BME280;74136;51.684;7.862;2023-12-20T11:13:12;100635.44;;;6.09;81.41
84049;BME280;74136;51.684;7.862;2023-12-20T11:15:39;100643.25;;;6.12;81.96
84049;BME280;74136;51.684;7.862;2023-12-20T11:18:05;100644.94;;;6.13;81.99
84049;BME280;74136;51.684;7.862;2023-12-20T11:20:36;100633.56;;;6.10;81.13
84049;BME280;74136;51.684;7.862;2023-12-20T11:23:02;100637.97;;;6.11;81.83
84049;BME280;74136;51.684;7.862;2023-12-20T11:25:28;100650.38;;;6.13;81.41
84049;BME280;74136;51.684;7.862;2023-12-20T11:28:12;100640.94;;;6.16;81.88
84049;BME280;74136;51.684;7.862;2023-12-20T11:30:50;100633.78;;;6.21;81.96
84049;BME280;74136;51.684;7.862;2023-12-20T11:33:16;100632.75;;;6.22;81.71
84049;BME280;74136;51.684;7.862;2023-12-20T11:35:46;100628.53;;;6.20;81.64
84049;BME280;74136;51.684;7.862;2023-12-20T11:38:14;100634.00;;;6.20;81.96
84049;BME280;74136;51.684;7.862;2023-12-20T11:40:41;100619.28;;;6.21;82.23
84049;BME280;74136;51.684;7.862;2023-12-20T11:43:09;100619.72;;;6.18;81.44
84049;BME280;74136;51.684;7.862;2023-12-20T11:45:34;100624.75;;;6.21;81.80
84049;BME280;74136;51.684;7.862;2023-12-20T11:48:02;100609.84;;;6.24;82.30
84049;BME280;74136;51.684;7.862;2023-12-20T11:50:28;100623.50;;;6.17;82.71
84049;BME280;74136;51.684;7.862;2023-12-20T11:52:56;100625.81;;;6.13;83.78
84049;BME280;74136;51.684;7.862;2023-12-20T11:55:24;100616.97;;;6.05;83.33
84049;BME280;74136;51.684;7.862;2023-12-20T11:57:51;100601.41;;;6.05;83.62
84049;BME280;74136;51.684;7.862;2023-12-20T12:00:17;100594.91;;;6.13;84.31
84049;BME280;74136;51.684;7.862;2023-12-20T12:02:43;100590.91;;;6.15;83.25
84049;BME280;74136;51.684;7.862;2023-12-20T12:05:08;100586.94;;;6.25;82.92
84049;BME280;74136;51.684;7.862;2023-12-20T12:07:34;100590.72;;;6.43;81.90
84049;BME280;74136;51.684;7.862;2023-12-20T12:10:00;100588.00;;;6.56;82.09
84049;BME280;74136;51.684;7.862;2023-12-20T12:12:26;100566.09;;;6.63;81.18
84049;BME280;74136;51.684;7.862;2023-12-20T12:14:52;100575.78;;;6.66;80.78
84049;BME280;74136;51.684;7.862;2023-12-20T12:17:18;100574.09;;;6.65;80.76
84049;BME280;74136;51.684;7.862;2023-12-20T12:19:44;100574.13;;;6.71;81.32
84049;BME280;74136;51.684;7.862;2023-12-20T12:22:13;100561.94;;;6.74;80.47
84049;BME280;74136;51.684;7.862;2023-12-20T12:24:41;100547.81;;;6.70;80.87
84049;BME280;74136;51.684;7.862;2023-12-20T12:27:07;100552.88;;;6.60;80.45
84049;BME280;74136;51.684;7.862;2023-12-20T12:29:33;100544.28;;;6.50;80.76
84049;BME280;74136;51.684;7.862;2023-12-20T12:31:59;100551.44;;;6.51;80.29
84049;BME280;74136;51.684;7.862;2023-12-20T12:34:27;100542.97;;;6.52;80.77
84049;BME280;74136;51.684;7.862;2023-12-20T12:36:53;100525.31;;;6.55;80.75
84049;BME280;74136;51.684;7.862;2023-12-20T12:39:18;100533.75;;;6.60;81.39
84049;BME280;74136;51.684;7.862;2023-12-20T12:41:44;100540.47;;;6.57;81.01
84049;BME280;74136;51.684;7.862;2023-12-20T12:44:09;100551.84;;;6.61;80.97
84049;BME280;74136;51.684;7.862;2023-12-20T12:46:35;100542.16;;;6.58;80.62
84049;BME280;74136;51.684;7.862;2023-12-20T12:49:00;100548.44;;;6.66;81.50
84049;BME280;74136;51.684;7.862;2023-12-20T12:51:25;100553.72;;;6.61;80.58
84049;BME280;74136;51.684;7.862;2023-12-20T12:53:52;100537.75;;;6.44;80.57
84049;BME280;74136;51.684;7.862;2023-12-20T12:56:18;100542.38;;;6.37;81.29